Latest Weather Observations for Nuriootpa

IDS60901

Issued at 3:31 pm CST Saturday 28 May 2016 (issued every 10 minutes, with the page automatically refreshed every 10 minutes)

About weather observations | Map of Adelaide area stations | Latest observations for Adelaide area | Other Formats
Station Details ID: 023373 Name: NURIOOTPA PIRSA Lat: -34.48 Lon: 139.01 Height: 275.0 m
Data from the previous 72 hours. | See also: Recent months at Nuriootpa
Date/Time
CST
Tmp

°C
App
Tmp
°C
Dew
Point
°C
Rel
Hum
%
Delta-T

°C
Wind Press
QNH
hPa
Press
MSL
hPa
Rain
since
9 am
mm
Dir
 
Spd
km/h
Gust
km/h
Spd
kts
Gust
kts
28/03:00pm 13.3 9.3 5.0 57 3.9 SSE 15 20 8 11 1016.7 1016.7 0.0
28/02:30pm 13.1 8.9 5.5 60 3.6 SE 17 24 9 13 1016.4 1016.4 0.0
28/02:00pm 13.4 9.2 5.7 59 3.7 SE 17 22 9 12 1016.3 1016.3 0.0
28/01:30pm 14.0 9.8 5.7 57 4.0 SSE 17 24 9 13 1016.3 1016.3 0.0
28/01:00pm 13.5 8.7 4.5 54 4.2 SSE 19 28 10 15 1016.4 1016.4 0.0
28/12:30pm 13.3 8.9 4.8 56 4.0 SSE 17 24 9 13 1016.5 1016.5 0.0
28/12:00pm 13.3 9.4 5.5 59 3.7 SSE 15 22 8 12 1016.9 1016.9 0.0
28/11:30am 12.8 8.4 4.9 58 3.7 SSE 17 22 9 12 1017.1 1017.1 0.0
28/11:00am 13.0 9.5 5.4 60 3.6 SSE 13 22 7 12 1017.1 1017.1 0.0
28/10:30am 12.2 7.9 5.4 63 3.2 SSE 17 20 9 11 1016.8 1016.8 0.0
28/10:00am 11.7 7.1 5.5 66 2.9 SSE 19 26 10 14 1016.6 1016.6 0.0
28/09:30am 11.1 6.5 5.6 69 2.6 SSE 19 26 10 14 1016.4 1016.4 0.0
28/09:00am 10.8 7.4 5.7 71 2.4 SSE 13 20 7 11 1016.0 1016.0 13.8
28/08:30am 10.5 7.6 6.7 77 1.8 S 11 17 6 9 1015.4 1015.3 13.8
28/08:00am 9.9 6.2 8.1 88 0.9 SSE 17 28 9 15 1014.6 1014.5 13.8
28/07:30am 9.0 7.4 8.8 99 0.1 SSW 7 11 4 6 1013.9 1013.9 13.8
28/07:00am 9.1 7.5 8.9 99 0.1 SSW 7 9 4 5 1013.3 1013.3 13.8
28/06:30am 9.1 8.9 8.9 99 0.1 CALM 0 0 0 0 1012.8 1012.8 13.8
28/06:00am 9.2 7.8 9.0 99 0.1 W 6 7 3 4 1012.3 1012.2 13.8
28/05:30am 9.0 7.4 8.6 97 0.2 WSW 7 9 4 5 1011.9 1011.8 13.8
28/05:00am 8.9 7.2 8.5 97 0.2 S 7 9 4 5 1011.5 1011.4 13.8
28/04:30am 9.1 7.5 8.7 97 0.2 S 7 9 4 5 1011.3 1011.2 13.8
28/04:00am 9.1 6.7 8.7 97 0.2 WNW 11 15 6 8 1011.0 1010.9 13.8
28/03:30am 9.0 5.8 8.6 97 0.2 W 15 22 8 12 1010.8 1010.7 13.8
28/03:00am 9.1 5.9 8.5 96 0.3 W 15 22 8 12 1010.6 1010.5 13.8
28/02:30am 8.8 5.1 8.0 95 0.4 W 17 22 9 12 1010.5 1010.4 13.8
28/02:00am 8.5 4.7 7.5 93 0.5 W 17 22 9 12 1010.3 1010.3 13.8
28/01:30am 8.5 4.6 7.2 91 0.6 W 17 22 9 12 1010.1 1010.1 13.8
28/01:00am 8.3 4.8 7.3 93 0.5 WSW 15 20 8 11 1010.1 1010.1 13.8
28/12:30am 8.0 4.9 7.4 96 0.3 WSW 13 19 7 10 1010.2 1010.2 13.6
28/12:00am 8.4 5.8 7.8 96 0.3 SW 11 15 6 8 1010.2 1010.2 13.6
 
Date/Time
CST
Tmp

°C
App
Tmp
°C
Dew
Point
°C
Rel
Hum
%
Delta-T

°C
Wind Press
QNH
hPa
Press
MSL
hPa
Rain
since
9 am
mm
Dir
 
Spd
km/h
Gust
km/h
Spd
kts
Gust
kts
27/11:30pm 8.3 4.8 7.3 93 0.5 WSW 15 24 8 13 1009.9 1009.9 13.6
27/11:00pm 8.6 4.5 7.8 95 0.4 WSW 19 28 10 15 1010.1 1010.1 13.4
27/10:30pm 8.3 4.5 7.7 96 0.3 W 17 22 9 12 1010.1 1010.1 13.2
27/10:00pm 8.4 4.3 8.0 97 0.2 WSW 19 28 10 15 1009.9 1009.9 13.2
27/09:30pm 8.5 4.3 7.5 93 0.5 WSW 19 28 10 15 1009.8 1009.8 13.2
27/09:00pm 8.7 3.6 7.7 93 0.5 WSW 24 35 13 19 1009.5 1009.5 12.8
27/08:30pm 8.8 2.4 7.1 89 0.8 WSW 30 48 16 26 1009.0 1008.9 12.2
27/08:26pm 8.7 3.2 7.5 92 0.6 WSW 26 46 14 25 1009.0 1008.9 11.8
27/08:00pm 8.8 4.7 7.8 93 0.5 W 19 26 10 14 1008.8 1008.7 11.2
27/07:33pm 8.8 3.0 7.8 93 0.5 W 28 46 15 25 1008.5 1008.4 11.0
27/07:30pm 8.8 3.3 7.6 92 0.6 W 26 46 14 25 1008.5 1008.4 10.8
27/07:27pm 8.7 2.8 7.7 93 0.5 W 28 46 15 25 1008.3 1008.2 10.8
27/07:00pm 8.6 3.4 7.1 90 0.7 W 24 39 13 21 1008.1 1008.0 10.6
27/06:30pm 8.2 1.4 6.9 91 0.6 W 32 48 17 26 1007.9 1007.8 10.6
27/06:25pm 8.4 2.4 6.9 90 0.7 W 28 48 15 26 1007.9 1007.8 10.0
27/06:00pm 7.7 3.3 6.4 91 0.6 W 19 24 10 13 1007.8 1007.7 9.6
27/05:30pm 7.7 3.6 6.2 90 0.7 W 17 22 9 12 1007.9 1007.8 9.6
27/05:00pm 8.5 3.0 7.7 95 0.4 W 26 33 14 18 1008.1 1008.0 9.4
27/04:30pm 8.5 2.9 7.0 90 0.7 WNW 26 35 14 19 1007.3 1007.2 7.4
27/04:00pm 9.0 4.6 7.6 91 0.7 WNW 20 30 11 16 1007.4 1007.3 7.4
27/03:30pm 9.2 3.2 7.1 87 1.0 WNW 28 39 15 21 1007.3 1007.2 7.4
27/03:00pm 9.6 4.1 7.5 87 1.0 W 26 35 14 19 1007.1 1007.0 7.2
27/02:43pm 9.6 3.8 8.0 90 0.8 W 28 46 15 25 1007.3 1007.2 7.2
27/02:30pm 9.5 3.7 8.1 91 0.7 W 28 41 15 22 1007.0 1006.9 7.2
27/02:00pm 9.3 3.6 8.5 95 0.4 WSW 28 46 15 25 1006.4 1006.4 7.2
27/01:30pm 9.3 2.6 8.1 92 0.6 NW 33 67 18 36 1007.0 1006.9 4.6
27/01:27pm 9.6 4.0 8.6 93 0.5 NW 28 65 15 35 1007.0 1006.9 4.4
27/01:00pm 9.5 5.1 8.9 96 0.3 WNW 22 37 12 20 1007.4 1007.3 2.8
27/12:30pm 9.8 1.9 8.0 88 0.9 WNW 39 63 21 34 1008.0 1007.9 0.2
27/12:00pm 13.5 6.8 7.5 67 3.0 WNW 32 57 17 31 1007.5 1007.4 0.0
27/11:39am 14.1 7.5 8.6 69 2.8 WNW 33 52 18 28 1007.8 1007.7 0.0
27/11:30am 14.0 8.1 9.2 73 2.5 WNW 30 41 16 22 1007.9 1007.8 0.0
27/11:06am 13.4 7.6 9.3 76 2.1 WNW 30 56 16 30 1008.4 1008.3 0.0
27/11:00am 13.3 7.1 9.4 77 2.0 WNW 32 46 17 25 1008.5 1008.4 0.0
27/10:32am 12.7 6.9 9.6 81 1.6 WNW 30 48 16 26 1008.7 1008.6 0.0
27/10:30am 12.8 7.5 9.9 82 1.5 WNW 28 41 15 22 1008.8 1008.7 0.0
27/10:00am 12.1 7.3 10.4 89 0.9 WNW 26 39 14 21 1008.9 1008.8 0.0
27/09:30am 11.4 6.6 10.4 94 0.5 WNW 26 37 14 20 1009.2 1009.1 0.0
27/09:00am 11.1 6.2 10.1 94 0.5 W 26 37 14 20 1009.3 1009.3 4.8
27/08:33am 11.2 5.9 10.0 92 0.6 WNW 28 48 15 26 1009.3 1009.3 4.6
27/08:30am 11.2 6.0 10.2 94 0.5 WNW 28 41 15 22 1009.3 1009.3 4.6
27/08:00am 10.9 5.2 9.9 93 0.5 WNW 30 39 16 21 1009.3 1009.3 4.6
27/07:30am 11.0 7.5 10.2 95 0.4 WNW 19 30 10 16 1009.4 1009.4 3.0
27/07:00am 10.9 6.7 9.7 92 0.6 NW 22 33 12 18 1009.6 1009.6 2.8
27/06:30am 10.9 7.3 9.7 92 0.6 WNW 19 28 10 15 1009.7 1009.7 2.8
27/06:00am 10.9 7.6 9.7 92 0.6 NW 17 26 9 14 1009.6 1009.6 2.8
27/05:30am 10.8 7.5 9.6 92 0.6 NW 17 22 9 12 1009.7 1009.7 2.6
27/05:00am 10.8 7.5 9.6 92 0.6 NW 17 24 9 13 1009.9 1009.9 2.6
27/04:30am 10.7 7.4 9.5 92 0.6 NW 17 24 9 13 1010.3 1010.3 2.6
27/04:00am 10.6 6.9 9.6 93 0.5 NW 19 28 10 15 1010.5 1010.4 2.6
27/03:30am 10.6 6.9 9.4 92 0.6 WNW 19 26 10 14 1010.7 1010.6 2.6
27/03:00am 10.3 7.4 9.5 95 0.4 NW 15 20 8 11 1011.0 1010.9 2.4
27/02:30am 10.4 7.9 9.6 95 0.4 NW 13 19 7 10 1011.1 1011.0 2.4
27/02:00am 10.2 7.6 9.2 93 0.5 WNW 13 19 7 10 1011.3 1011.2 1.4
27/01:30am 9.3 7.9 8.7 96 0.3 NNW 6 9 3 5 1011.4 1011.3 0.2
27/01:00am 8.5 6.7 8.1 97 0.2 ENE 7 7 4 4 1011.4 1011.3 0.2
27/12:30am 8.1 7.2 7.7 97 0.2 E 2 6 1 3 1011.6 1011.5 0.2
27/12:00am 7.8 6.1 7.4 97 0.2 ENE 6 7 3 4 1011.7 1011.6 0.2
 
Date/Time
CST
Tmp

°C
App
Tmp
°C
Dew
Point
°C
Rel
Hum
%
Delta-T

°C
Wind Press
QNH
hPa
Press
MSL
hPa
Rain
since
9 am
mm
Dir
 
Spd
km/h
Gust
km/h
Spd
kts
Gust
kts
26/11:30pm 7.9 6.2 7.5 97 0.2 ESE 6 9 3 5 1011.9 1011.8 0.2
26/11:00pm 8.3 7.8 7.7 96 0.3 CALM 0 6 0 3 1012.2 1012.1 0.2
26/10:30pm 8.9 7.2 8.3 96 0.3 NW 7 11 4 6 1012.2 1012.1 0.2
26/10:00pm 9.1 8.8 8.7 97 0.2 CALM 0 0 0 0 1012.5 1012.5 0.2
26/09:30pm 8.8 7.3 8.4 97 0.2 SE 6 7 3 4 1012.6 1012.6 0.2
26/09:00pm 10.0 9.4 9.0 93 0.5 W 2 6 1 3 1012.5 1012.5 0.2
26/08:30pm 10.9 9.1 9.3 90 0.8 W 9 11 5 6 1012.7 1012.7 0.2
26/08:00pm 11.1 9.3 9.3 89 0.9 W 9 13 5 7 1012.3 1012.2 0.0
26/07:30pm 11.3 9.3 8.7 84 1.3 W 9 13 5 7 1012.1 1012.0 0.0
26/07:00pm 10.8 9.0 8.0 83 1.4 WNW 7 9 4 5 1011.8 1011.7 0.0
26/06:30pm 10.9 8.2 7.4 79 1.7 W 11 13 6 7 1011.6 1011.5 0.0
26/06:00pm 11.2 8.4 7.1 76 2.0 W 11 15 6 8 1011.3 1011.2 0.0
26/05:30pm 11.7 8.4 6.5 70 2.5 W 13 17 7 9 1011.1 1011.0 0.0
26/05:00pm 12.5 8.4 6.3 66 3.0 W 17 24 9 13 1010.7 1010.6 0.0
26/04:30pm 13.4 9.0 6.7 64 3.3 W 19 28 10 15 1010.5 1010.4 0.0
26/04:00pm 13.9 9.2 6.1 59 3.8 WSW 20 30 11 16 1010.1 1010.1 0.0
26/03:30pm 14.4 9.8 6.5 59 3.9 WSW 20 32 11 17 1009.9 1009.9 0.0
26/03:00pm 14.6 9.6 6.5 58 4.0 WSW 22 32 12 17 1009.5 1009.5 0.0
26/02:30pm 14.0 9.4 6.4 60 3.7 SW 20 30 11 16 1009.3 1009.3 0.0
26/02:00pm 14.6 9.8 7.4 62 3.6 WSW 22 35 12 19 1009.3 1009.3 0.0
26/01:30pm 14.9 10.0 7.1 59 3.9 SW 22 33 12 18 1009.1 1009.0 0.0
26/01:00pm 14.6 9.4 7.2 61 3.7 WSW 24 33 13 18 1009.5 1009.5 0.0
26/12:30pm 14.0 8.9 6.2 59 3.8 WSW 22 33 12 18 1009.6 1009.6 0.0
26/12:00pm 14.1 9.5 8.2 67 3.0 SW 22 30 12 16 1009.7 1009.7 0.0
26/11:30am 13.9 9.5 8.8 71 2.6 WSW 22 32 12 17 1010.0 1010.0 0.0
26/11:00am 13.3 10.5 10.1 81 1.7 WSW 15 20 8 11 1010.0 1010.0 0.0
26/10:30am 12.1 10.0 9.8 86 1.2 WSW 11 17 6 9 1009.9 1009.9 0.0
26/10:00am 11.7 8.0 9.4 86 1.2 SW 19 24 10 13 1010.2 1010.2 0.0
26/09:30am 12.1 9.7 10.2 88 1.0 SW 13 19 7 10 1009.9 1009.9 0.0
26/09:00am 11.7 9.3 10.2 90 0.8 SW 13 20 7 11 1009.6 1009.6 26.0
26/08:30am 11.5 10.0 10.7 95 0.4 WSW 9 13 5 7 1009.5 1009.5 26.0
26/08:00am 11.1 9.5 10.3 95 0.4 WSW 9 15 5 8 1009.3 1009.3 26.0
26/07:30am 11.2 8.6 10.6 96 0.3 SW 15 20 8 11 1009.0 1008.9 26.0
26/07:00am 11.2 9.8 11.0 99 0.1 WSW 9 13 5 7 1008.6 1008.5 25.8
26/06:30am 11.3 10.0 11.1 99 0.1 WSW 9 13 5 7 1008.2 1008.1 25.8
26/06:00am 11.7 9.3 11.3 97 0.2 WSW 15 26 8 14 1008.1 1008.0 25.8
26/05:30am 11.9 9.5 11.5 97 0.2 WSW 15 19 8 10 1007.9 1007.8 25.8
26/05:00am 11.9 9.9 11.5 97 0.2 SW 13 19 7 10 1007.6 1007.5 25.8
26/04:30am 12.2 9.9 11.8 97 0.2 WSW 15 20 8 11 1007.3 1007.2 25.8
26/04:00am 12.3 10.1 12.1 99 0.1 WSW 15 22 8 12 1007.1 1007.0 25.8
26/03:30am 12.4 10.2 12.2 99 0.1 W 15 20 8 11 1007.0 1006.9 25.6
26/03:00am 12.5 10.4 12.3 99 0.1 W 15 20 8 11 1006.9 1006.8 25.6
26/02:30am 12.4 10.2 12.0 97 0.2 WSW 15 24 8 13 1006.8 1006.7 25.6
26/02:00am 12.3 10.8 11.9 97 0.2 WNW 11 17 6 9 1006.3 1006.3 25.4
26/01:30am 12.4 10.2 12.0 97 0.2 WNW 15 20 8 11 1006.8 1006.7 25.4
26/01:00am 12.4 9.8 12.0 97 0.2 WNW 17 24 9 13 1007.3 1007.2 25.2
26/12:30am 12.3 10.0 11.9 97 0.2 WNW 15 20 8 11 1007.4 1007.3 24.2
26/12:00am 12.3 10.4 11.9 97 0.2 WNW 13 19 7 10 1007.3 1007.2 22.6
 
Date/Time
CST
Tmp

°C
App
Tmp
°C
Dew
Point
°C
Rel
Hum
%
Delta-T

°C
Wind Press
QNH
hPa
Press
MSL
hPa
Rain
since
9 am
mm
Dir
 
Spd
km/h
Gust
km/h
Spd
kts
Gust
kts
25/11:30pm 12.3 10.0 11.9 97 0.2 WNW 15 19 8 10 1007.5 1007.4 20.8
25/11:00pm 12.4 9.4 11.8 96 0.3 WNW 19 26 10 14 1007.6 1007.5 19.4
25/10:30pm 12.3 9.3 11.9 97 0.2 WNW 19 24 10 13 1007.6 1007.5 18.8
25/10:00pm 12.4 9.4 11.8 96 0.3 WNW 19 24 10 13 1008.0 1007.9 16.4
25/09:30pm 12.4 9.4 11.8 96 0.3 NW 19 28 10 15 1007.9 1007.8 13.6
25/09:00pm 12.6 9.6 12.0 96 0.3 NW 19 26 10 14 1007.9 1007.8 11.4
25/08:30pm 12.7 9.8 12.2 97 0.3 WNW 19 26 10 14 1007.8 1007.7 11.0
25/08:00pm 12.8 10.3 12.3 97 0.3 WNW 17 26 9 14 1007.8 1007.7 10.8
25/07:30pm 12.7 10.2 12.2 97 0.3 WNW 17 26 9 14 1007.8 1007.7 10.6
25/07:00pm 12.6 10.0 11.9 95 0.4 WNW 17 28 9 15 1007.6 1007.5 10.2
25/06:30pm 12.5 8.9 11.8 95 0.4 NW 22 33 12 18 1007.6 1007.5 9.4
25/06:00pm 12.7 9.4 11.6 93 0.6 NW 20 35 11 19 1007.4 1007.3 8.4
25/05:30pm 12.8 9.7 11.7 93 0.6 NW 19 32 10 17 1007.6 1007.5 7.2
25/05:00pm 13.0 8.2 11.5 91 0.8 NW 28 46 15 25 1007.9 1007.8 5.0
25/04:56pm 13.2 8.3 11.3 88 1.0 NW 28 46 15 25 1007.8 1007.7 4.8
25/04:30pm 13.6 9.9 11.4 86 1.2 NW 22 33 12 18 1008.0 1007.9 4.4
25/04:00pm 14.0 10.6 11.2 83 1.5 NW 20 30 11 16 1008.1 1008.0 4.2

Latest Capital City Observations: Canberra | Sydney | Melbourne | Brisbane | Adelaide | Perth | Hobart | Darwin

Other Formats:

Comma delimited format used in spreadsheet applications
http://www.bom.gov.au/fwo/IDS60901/IDS60901.94681.axf

JavaScript Object Notation format (JSON) in row-major order
http://www.bom.gov.au/fwo/IDS60901/IDS60901.94681.json